Coningsby, United Kingdom
Current Conditions -  °F | °C
As of 12:50 PM on Thursday 18 Dec 2014 (Local Time) from EGXC Reporting Station
Broken Clouds Broken Clouds  
Wind Chill: 57°   Ceiling: 2400
Heat Index: 57°   Visibility: 6mi
Dew Point: 52°   Wind: 26mph
Humidity: 82%   Direction: 240°WSW
Pressure: 29.59"   Gusts: 41mph
Location:  53.11°N, 0.18°W
Report Text: EGXC 181250Z 24023G36KT 9999 BKN024 SCT120 14/11 Q1002 WHT TEMPO SCT025 BLU
Loading
Personal Weather Stations






























Interactive Weather Map New forecast layout! Learn more

10-Day Weather Forecast

Advertisements
Track Severe Weather on mobile